createdAt,value
2018-05-03T00:01:54.345Z,13.20
2018-05-03T00:04:20.609Z,13.20
2018-05-03T00:06:46.801Z,13.20
2018-05-03T00:09:13.041Z,13.20
2018-05-03T00:11:39.263Z,13.20
2018-05-03T00:14:06.205Z,13.20
2018-05-03T00:16:32.429Z,13.20
2018-05-03T00:18:58.759Z,13.20
2018-05-03T00:21:24.967Z,13.20
2018-05-03T00:23:51.178Z,13.20
2018-05-03T00:26:18.205Z,13.20
2018-05-03T00:28:44.357Z,13.20
2018-05-03T00:31:10.571Z,13.20
2018-05-03T00:33:36.786Z,13.20
2018-05-03T00:36:03.015Z,13.20
2018-05-03T00:38:29.236Z,13.10
2018-05-03T00:40:56.208Z,13.10
2018-05-03T00:43:22.413Z,13.10
2018-05-03T00:45:49.651Z,13.10
2018-05-03T00:48:15.868Z,13.10
2018-05-03T00:50:43.392Z,13.10
2018-05-03T00:53:09.616Z,13.10
2018-05-03T00:55:35.848Z,13.00
2018-05-03T00:58:02.094Z,13.10
2018-05-03T01:00:28.328Z,13.00
2018-05-03T01:02:54.558Z,12.90
2018-05-03T01:05:20.754Z,12.90
2018-05-03T01:07:47.694Z,12.80
2018-05-03T01:10:13.916Z,12.80
2018-05-03T01:12:40.158Z,12.80
2018-05-03T01:15:06.368Z,12.80
2018-05-03T01:17:32.624Z,12.80
2018-05-03T01:19:59.122Z,12.80
2018-05-03T01:22:26.118Z,12.70
2018-05-03T01:24:52.382Z,12.70
2018-05-03T01:27:18.597Z,12.70
2018-05-03T01:29:44.812Z,12.70
2018-05-03T01:32:11.066Z,12.70
2018-05-03T01:34:37.284Z,12.60
2018-05-03T01:37:04.257Z,12.60
2018-05-03T01:39:30.501Z,12.60
2018-05-03T01:41:56.762Z,12.60
2018-05-03T01:44:22.985Z,12.60
2018-05-03T01:46:49.214Z,12.60
2018-05-03T01:49:15.448Z,12.60
2018-05-03T01:51:41.807Z,12.70
2018-05-03T01:54:08.055Z,12.70
2018-05-03T01:56:34.281Z,12.70
2018-05-03T01:59:01.315Z,12.70
2018-05-03T02:01:27.551Z,12.70
2018-05-03T02:03:54.510Z,12.70
2018-05-03T02:06:21.481Z,12.70
2018-05-03T02:08:48.449Z,12.70
2018-05-03T02:11:14.661Z,12.70
2018-05-03T02:13:40.897Z,12.70
2018-05-03T02:16:07.152Z,12.70
2018-05-03T02:18:34.115Z,12.70
2018-05-03T02:21:01.055Z,12.70
2018-05-03T02:23:27.240Z,12.70
2018-05-03T02:25:53.463Z,12.70
2018-05-03T02:28:19.691Z,12.70
2018-05-03T02:30:46.685Z,12.70
2018-05-03T02:33:12.915Z,12.80
2018-05-03T02:35:39.125Z,12.70
2018-05-03T02:38:05.374Z,12.80
2018-05-03T02:40:32.341Z,12.80
2018-05-03T02:42:58.562Z,12.70
2018-05-03T02:45:25.550Z,12.80
2018-05-03T02:47:51.768Z,12.80
2018-05-03T02:50:18.759Z,12.80
2018-05-03T02:52:45.339Z,12.80
2018-05-03T02:55:11.591Z,12.80
2018-05-03T02:57:56.421Z,12.70
2018-05-03T03:00:41.345Z,12.80
2018-05-03T03:03:26.877Z,12.70
2018-05-03T03:06:07.289Z,12.70
2018-05-03T03:08:52.001Z,12.70
2018-05-03T03:11:46.482Z,12.80
2018-05-03T03:14:40.769Z,12.80
2018-05-03T03:17:25.364Z,12.80
2018-05-03T03:20:21.760Z,12.70
2018-05-03T03:23:07.061Z,12.70
2018-05-03T03:25:45.503Z,12.70
2018-05-03T03:28:43.093Z,12.70
2018-05-03T03:31:36.427Z,12.70
2018-05-03T03:34:04.521Z,12.70
2018-05-03T03:36:53.795Z,12.70
2018-05-03T03:39:32.068Z,12.70
2018-05-03T03:41:59.114Z,12.70
2018-05-03T03:44:37.712Z,12.70
2018-05-03T03:47:03.954Z,12.70
2018-05-03T03:49:30.218Z,12.70
2018-05-03T03:51:56.424Z,12.70
2018-05-03T03:54:23.550Z,12.70
2018-05-03T03:56:49.782Z,12.70
2018-05-03T03:59:16.010Z,12.80
2018-05-03T04:01:42.234Z,12.80
2018-05-03T04:04:08.466Z,12.80
2018-05-03T04:06:34.678Z,12.80
2018-05-03T04:09:01.661Z,12.80
2018-05-03T04:11:27.884Z,12.80
2018-05-03T04:13:54.837Z,12.80
2018-05-03T04:16:21.819Z,12.80
2018-05-03T04:19:00.206Z,12.80
2018-05-03T04:21:52.354Z,12.90
2018-05-03T04:24:30.901Z,12.90
2018-05-03T04:26:57.144Z,12.90
2018-05-03T04:29:24.100Z,13.20
2018-05-03T04:31:51.056Z,13.30
2018-05-03T04:34:18.047Z,13.50
2018-05-03T04:36:44.273Z,13.50
2018-05-03T04:39:10.474Z,13.60
2018-05-03T04:41:36.709Z,13.80
2018-05-03T04:44:02.939Z,14.00
2018-05-03T04:46:29.153Z,14.10
2018-05-03T04:48:55.369Z,14.20
2018-05-03T04:51:21.595Z,14.30
2018-05-03T04:53:48.553Z,14.50
2018-05-03T04:56:15.643Z,14.40
2018-05-03T04:58:41.909Z,14.40
2018-05-03T05:01:08.154Z,14.50
2018-05-03T05:03:34.391Z,14.50
2018-05-03T05:06:00.611Z,14.50
2018-05-03T05:08:26.847Z,14.60
2018-05-03T05:10:53.085Z,14.60
2018-05-03T05:13:19.299Z,14.80
2018-05-03T05:15:46.282Z,15.00
2018-05-03T05:18:12.533Z,15.00
2018-05-03T05:20:38.751Z,15.20
2018-05-03T05:23:04.971Z,15.40
2018-05-03T05:25:31.960Z,15.80
2018-05-03T05:27:58.181Z,15.80
2018-05-03T05:30:25.152Z,15.60
2018-05-03T05:32:51.407Z,15.60
2018-05-03T05:35:17.631Z,15.40
2018-05-03T05:37:43.857Z,15.30
2018-05-03T05:40:10.883Z,15.00
2018-05-03T05:42:37.111Z,15.00
2018-05-03T05:45:03.345Z,14.90
2018-05-03T05:47:29.588Z,14.90
2018-05-03T05:49:55.815Z,14.90
2018-05-03T05:52:22.055Z,14.90
2018-05-03T05:54:48.325Z,14.70
2018-05-03T05:57:15.063Z,14.50
2018-05-03T05:59:41.319Z,14.40
2018-05-03T06:02:07.557Z,14.20
2018-05-03T06:04:33.770Z,14.10
2018-05-03T06:07:00.005Z,14.00
2018-05-03T06:09:26.251Z,14.00
2018-05-03T06:11:52.448Z,13.90
2018-05-03T06:14:19.410Z,14.10
2018-05-03T06:16:46.412Z,14.10
2018-05-03T06:19:13.002Z,14.10
2018-05-03T06:21:39.227Z,14.00
2018-05-03T06:24:05.475Z,14.00
2018-05-03T06:26:31.718Z,14.00
2018-05-03T06:28:57.964Z,14.00
2018-05-03T06:31:24.262Z,14.00
2018-05-03T06:33:50.507Z,14.00
2018-05-03T06:36:16.818Z,14.00
2018-05-03T06:38:43.110Z,14.00
2018-05-03T06:41:09.378Z,14.10
2018-05-03T06:43:36.326Z,14.20
2018-05-03T06:46:02.626Z,14.20
2018-05-03T06:48:28.847Z,14.30
2018-05-03T06:50:55.102Z,14.40
2018-05-03T06:53:21.342Z,14.50
2018-05-03T06:55:47.556Z,14.60
2018-05-03T06:58:14.900Z,15.10
2018-05-03T07:00:41.146Z,15.00
2018-05-03T07:03:07.372Z,15.30
2018-05-03T07:05:33.588Z,15.50
2018-05-03T07:07:59.844Z,15.60
2018-05-03T07:10:26.062Z,15.80
2018-05-03T07:12:52.266Z,15.90
2018-05-03T07:15:19.235Z,16.10
2018-05-03T07:17:45.466Z,16.10
2018-05-03T07:20:12.426Z,16.10
2018-05-03T07:22:38.666Z,16.10
2018-05-03T07:25:04.905Z,16.10
2018-05-03T07:27:31.130Z,16.00
2018-05-03T07:29:58.102Z,16.00
2018-05-03T07:32:24.350Z,16.00
2018-05-03T07:34:50.785Z,16.10
2018-05-03T07:37:17.768Z,16.20
2018-05-03T07:39:43.986Z,16.20
2018-05-03T07:42:10.957Z,16.10
2018-05-03T07:44:37.195Z,16.10
2018-05-03T07:47:03.469Z,16.20
2018-05-03T07:49:29.682Z,16.20
2018-05-03T07:51:56.010Z,16.30
2018-05-03T07:54:22.239Z,16.30
2018-05-03T07:56:49.191Z,16.50
2018-05-03T07:59:16.306Z,16.60
2018-05-03T08:01:42.529Z,16.60
2018-05-03T08:04:08.747Z,16.70
2018-05-03T08:06:35.745Z,16.90
2018-05-03T08:09:02.005Z,16.80
2018-05-03T08:11:28.244Z,17.00
2018-05-03T08:13:55.211Z,17.10
2018-05-03T08:16:22.173Z,17.20
2018-05-03T08:18:48.441Z,17.10
2018-05-03T08:21:15.445Z,17.50
2018-05-03T08:23:41.657Z,17.40
2018-05-03T08:26:07.871Z,17.60
2018-05-03T08:28:34.134Z,17.70
2018-05-03T08:31:00.367Z,17.70
2018-05-03T08:33:26.573Z,17.60
2018-05-03T08:35:52.800Z,17.60
2018-05-03T08:38:19.775Z,17.70
2018-05-03T08:40:45.997Z,17.70
2018-05-03T08:43:12.266Z,17.80
2018-05-03T08:45:38.484Z,17.80
2018-05-03T08:48:04.726Z,17.90
2018-05-03T08:50:30.936Z,17.90
2018-05-03T08:52:59.572Z,17.90
2018-05-03T08:55:25.806Z,17.90
2018-05-03T08:57:52.053Z,18.00
2018-05-03T09:00:18.474Z,18.20
2018-05-03T09:02:44.696Z,18.40
2018-05-03T09:05:10.941Z,18.50
2018-05-03T09:07:37.193Z,18.60
2018-05-03T09:10:03.484Z,18.70
2018-05-03T09:12:30.456Z,19.10
2018-05-03T09:14:56.672Z,19.00
2018-05-03T09:17:23.648Z,19.30
2018-05-03T09:19:49.870Z,19.30
2018-05-03T09:22:16.090Z,19.60
2018-05-03T09:24:43.778Z,19.60
2018-05-03T09:27:10.036Z,19.60
2018-05-03T09:29:36.275Z,19.30
2018-05-03T09:32:03.256Z,19.00
2018-05-03T09:34:29.505Z,19.00
2018-05-03T09:36:55.949Z,19.10
2018-05-03T09:39:22.162Z,19.30
2018-05-03T09:41:49.144Z,19.90
2018-05-03T09:44:15.372Z,19.90
2018-05-03T09:46:41.602Z,20.20
2018-05-03T09:49:07.836Z,20.40
2018-05-03T09:51:34.855Z,20.90
2018-05-03T09:54:01.083Z,20.80
2018-05-03T09:56:27.323Z,20.90
2018-05-03T09:58:53.563Z,20.80
2018-05-03T10:01:20.141Z,20.80
2018-05-03T10:03:46.420Z,20.90
2018-05-03T10:06:13.387Z,21.20
2018-05-03T10:08:39.609Z,21.20
2018-05-03T10:11:06.579Z,21.60
2018-05-03T10:13:32.809Z,21.60
2018-05-03T10:15:59.778Z,22.20
2018-05-03T10:18:26.027Z,22.10
2018-05-03T10:20:52.284Z,22.20
2018-05-03T10:23:18.514Z,22.20
2018-05-03T10:25:44.747Z,22.40
2018-05-03T10:28:10.971Z,22.60
2018-05-03T10:30:37.927Z,22.90
2018-05-03T10:33:04.916Z,23.20
2018-05-03T10:35:31.129Z,23.20
2018-05-03T10:37:57.346Z,23.60
2018-05-03T10:40:23.595Z,23.70
2018-05-03T10:42:50.549Z,23.90
2018-05-03T10:45:16.805Z,23.80
2018-05-03T10:47:43.753Z,24.40
2018-05-03T10:50:10.704Z,24.50
2018-05-03T10:52:37.656Z,24.70
2018-05-03T10:55:03.912Z,24.70
2018-05-03T10:57:30.942Z,24.90
2018-05-03T10:59:57.110Z,24.80
2018-05-03T11:02:24.211Z,24.50
2018-05-03T11:04:50.437Z,24.50
2018-05-03T11:07:16.629Z,24.10
2018-05-03T11:09:42.890Z,24.00
2018-05-03T11:12:09.910Z,25.00
2018-05-03T11:14:36.150Z,25.00
2018-05-03T11:17:09.413Z,25.30
2018-05-03T11:19:35.642Z,25.50
2018-05-03T11:22:01.855Z,25.20
2018-05-03T11:24:28.099Z,25.00
2018-05-03T11:26:54.312Z,24.90
2018-05-03T11:29:20.549Z,24.70
2018-05-03T11:31:46.782Z,24.50
2018-05-03T11:34:13.134Z,24.20
2018-05-03T11:36:40.152Z,24.00
2018-05-03T11:39:06.387Z,23.80
2018-05-03T11:41:33.355Z,23.80
2018-05-03T11:43:59.609Z,23.80
2018-05-03T11:46:25.846Z,24.00
2018-05-03T11:48:52.091Z,24.10
2018-05-03T11:51:18.388Z,24.20
2018-05-03T11:53:45.347Z,24.00
2018-05-03T11:56:11.609Z,24.00
2018-05-03T11:58:37.823Z,24.20
2018-05-03T12:01:04.119Z,24.70
2018-05-03T12:03:30.497Z,24.80
2018-05-03T12:05:56.753Z,24.60
2018-05-03T12:08:23.013Z,24.70
2018-05-03T12:10:49.981Z,25.60
2018-05-03T12:13:16.200Z,25.50
2018-05-03T12:15:43.288Z,26.30
2018-05-03T12:18:09.569Z,26.30
2018-05-03T12:20:35.805Z,26.60
2018-05-03T12:23:02.083Z,27.00
2018-05-03T12:25:28.334Z,27.40
2018-05-03T12:27:55.329Z,27.60
2018-05-03T12:30:21.588Z,27.50
2018-05-03T12:32:47.804Z,27.40
2018-05-03T12:35:14.036Z,27.30
2018-05-03T12:37:40.301Z,27.30
2018-05-03T12:40:06.519Z,27.40
2018-05-03T12:42:32.755Z,27.20
2018-05-03T12:44:59.000Z,27.20
2018-05-03T12:47:25.236Z,27.10
2018-05-03T12:49:51.508Z,27.10
2018-05-03T12:52:17.785Z,27.20
2018-05-03T12:54:44.010Z,27.00
2018-05-03T12:57:10.248Z,27.10
2018-05-03T12:59:36.458Z,27.30
2018-05-03T13:02:02.751Z,27.70
2018-05-03T13:04:29.974Z,28.30
2018-05-03T13:06:56.577Z,28.30
2018-05-03T13:09:23.544Z,27.90
2018-05-03T13:11:50.562Z,27.50
2018-05-03T13:14:16.865Z,27.50
2018-05-03T13:16:43.888Z,27.50
2018-05-03T13:19:10.858Z,27.60
2018-05-03T13:21:37.089Z,27.50
2018-05-03T13:24:04.060Z,26.60
2018-05-03T13:26:30.293Z,26.60
2018-05-03T13:28:57.205Z,25.50
2018-05-03T13:31:23.464Z,25.40
2018-05-03T13:33:49.685Z,25.00
2018-05-03T13:36:15.909Z,24.60
2018-05-03T13:38:42.188Z,24.30
2018-05-03T13:41:08.452Z,24.00
2018-05-03T13:43:34.729Z,23.80
2018-05-03T13:46:00.980Z,23.60
2018-05-03T13:48:27.214Z,23.50
2018-05-03T13:50:53.489Z,23.20
2018-05-03T13:53:19.821Z,23.00
2018-05-03T13:55:46.016Z,22.90
2018-05-03T13:58:12.260Z,22.70
2018-05-03T14:00:39.247Z,22.70
2018-05-03T14:03:05.468Z,22.80
2018-05-03T14:05:31.953Z,22.80
2018-05-03T14:07:59.055Z,22.70
2018-05-03T14:10:25.276Z,22.80
2018-05-03T14:12:52.239Z,24.00
2018-05-03T14:15:19.223Z,24.50
2018-05-03T14:17:45.455Z,24.40
2018-05-03T14:20:11.682Z,24.40
2018-05-03T14:22:37.950Z,24.40
2018-05-03T14:25:04.167Z,24.40
2018-05-03T14:27:30.396Z,24.40
2018-05-03T14:29:56.656Z,24.60
2018-05-03T14:32:22.893Z,25.00
2018-05-03T14:34:49.123Z,25.40
2018-05-03T14:37:15.388Z,25.20
2018-05-03T14:39:41.597Z,24.90
2018-05-03T14:42:08.603Z,24.60
2018-05-03T14:44:34.843Z,24.60
2018-05-03T14:47:01.145Z,24.70
2018-05-03T14:49:27.385Z,25.00
2018-05-03T14:51:53.640Z,25.10
2018-05-03T14:54:19.843Z,24.70
2018-05-03T14:56:46.059Z,24.10
2018-05-03T14:59:12.308Z,23.90
2018-05-03T15:01:38.551Z,24.10
2018-05-03T15:04:04.767Z,24.40
2018-05-03T15:06:31.336Z,24.50
2018-05-03T15:08:58.475Z,24.60
2018-05-03T15:11:24.684Z,24.80
2018-05-03T15:13:50.979Z,24.90
2018-05-03T15:16:18.033Z,25.10
2018-05-03T15:18:44.141Z,25.10
2018-05-03T15:21:10.412Z,25.10
2018-05-03T15:23:36.627Z,25.20
2018-05-03T15:26:02.854Z,25.30
2018-05-03T15:28:29.120Z,25.20
2018-05-03T15:30:55.562Z,24.90
2018-05-03T15:33:22.522Z,24.70
2018-05-03T15:35:49.075Z,24.70
2018-05-03T15:38:15.308Z,24.40
2018-05-03T15:40:41.545Z,24.00
2018-05-03T15:43:07.792Z,23.60
2018-05-03T15:45:34.020Z,23.30
2018-05-03T15:48:00.232Z,23.00
2018-05-03T15:50:27.227Z,23.20
2018-05-03T15:52:53.478Z,23.10
2018-05-03T15:55:19.688Z,23.40
2018-05-03T15:57:45.928Z,23.60
2018-05-03T16:00:12.152Z,23.70
2018-05-03T16:02:39.160Z,23.60
2018-05-03T16:05:05.398Z,23.50
2018-05-03T16:07:32.441Z,23.20
2018-05-03T16:09:58.693Z,23.10
2018-05-03T16:12:24.925Z,23.00
2018-05-03T16:14:51.155Z,23.10
2018-05-03T16:17:17.389Z,23.30
2018-05-03T16:19:43.641Z,23.50
2018-05-03T16:22:09.857Z,23.60
2018-05-03T16:24:36.089Z,23.40
2018-05-03T16:27:02.363Z,23.00
2018-05-03T16:29:28.591Z,22.50
2018-05-03T16:31:54.827Z,22.10
2018-05-03T16:34:21.084Z,21.80
2018-05-03T16:36:47.371Z,21.60
2018-05-03T16:39:13.609Z,21.40
2018-05-03T16:41:39.862Z,21.30
2018-05-03T16:44:06.804Z,21.00
2018-05-03T16:46:33.027Z,21.00
2018-05-03T16:48:59.263Z,21.00
2018-05-03T16:51:25.539Z,20.90
2018-05-03T16:53:51.841Z,20.90
2018-05-03T16:56:18.152Z,20.90
2018-05-03T16:58:44.449Z,20.90
2018-05-03T17:01:10.762Z,20.90
2018-05-03T17:03:37.105Z,21.10
2018-05-03T17:06:03.360Z,21.30
2018-05-03T17:08:29.701Z,21.40
2018-05-03T17:10:55.948Z,21.50
2018-05-03T17:13:22.199Z,21.60
2018-05-03T17:15:48.448Z,21.60
2018-05-03T17:18:14.696Z,21.50
2018-05-03T17:20:40.923Z,21.40
2018-05-03T17:23:07.150Z,21.30
2018-05-03T17:25:33.419Z,21.10
2018-05-03T17:27:59.631Z,21.00
2018-05-03T17:30:25.903Z,20.80
2018-05-03T17:32:52.893Z,20.50
2018-05-03T17:35:19.152Z,20.40
2018-05-03T17:37:45.400Z,20.40
2018-05-03T17:40:11.670Z,20.20
2018-05-03T17:42:37.900Z,20.10
2018-05-03T17:45:04.163Z,20.00
2018-05-03T17:47:31.146Z,19.70
2018-05-03T17:49:57.399Z,19.80
2018-05-03T17:52:23.650Z,19.70
2018-05-03T17:54:49.882Z,19.50
2018-05-03T17:57:16.113Z,19.40
2018-05-03T17:59:42.382Z,19.40
2018-05-03T18:02:08.652Z,19.30
2018-05-03T18:04:34.971Z,19.20
2018-05-03T18:07:01.924Z,19.10
2018-05-03T18:09:28.420Z,19.10
2018-05-03T18:11:55.434Z,18.90
2018-05-03T18:14:21.662Z,18.90
2018-05-03T18:16:47.929Z,18.80
2018-05-03T18:19:14.205Z,18.80
2018-05-03T18:21:41.239Z,18.70
2018-05-03T18:24:07.520Z,18.70
2018-05-03T18:26:33.767Z,18.70
2018-05-03T18:28:59.994Z,18.60
2018-05-03T18:31:27.043Z,18.60
2018-05-03T18:33:54.074Z,18.50
2018-05-03T18:36:20.330Z,18.50
2018-05-03T18:38:46.619Z,18.40
2018-05-03T18:41:12.862Z,18.40
2018-05-03T18:43:39.119Z,18.40
2018-05-03T18:46:05.657Z,18.40
2018-05-03T18:48:31.903Z,18.30
2018-05-03T18:50:58.193Z,18.30
2018-05-03T18:53:25.211Z,18.20
2018-05-03T18:55:51.482Z,18.20
2018-05-03T18:58:17.727Z,18.20
2018-05-03T19:00:44.747Z,18.10
2018-05-03T19:03:11.007Z,18.10
2018-05-03T19:05:37.242Z,18.10
2018-05-03T19:08:03.523Z,18.00
2018-05-03T19:10:29.973Z,18.00
2018-05-03T19:12:56.990Z,18.00
2018-05-03T19:15:23.244Z,17.90
2018-05-03T19:17:49.596Z,17.90
2018-05-03T19:20:15.812Z,17.80
2018-05-03T19:22:42.085Z,17.90
2018-05-03T19:25:09.122Z,17.70
2018-05-03T19:27:35.368Z,17.80
2018-05-03T19:30:01.664Z,17.70
2018-05-03T19:32:27.979Z,17.70
2018-05-03T19:34:55.022Z,17.70
2018-05-03T19:37:21.366Z,17.60
2018-05-03T19:39:47.645Z,17.60
2018-05-03T19:42:13.966Z,17.70
2018-05-03T19:44:40.301Z,17.60
2018-05-03T19:47:07.297Z,17.60
2018-05-03T19:49:33.592Z,17.60
2018-05-03T19:52:00.830Z,17.50
2018-05-03T19:54:27.117Z,17.50
2018-05-03T19:56:54.152Z,17.50
2018-05-03T19:59:20.469Z,17.50
2018-05-03T20:01:46.766Z,17.50
2018-05-03T20:04:12.999Z,17.40
2018-05-03T20:06:39.372Z,17.40
2018-05-03T20:09:05.620Z,17.40
2018-05-03T20:11:32.186Z,17.30
2018-05-03T20:13:58.501Z,17.30
2018-05-03T20:16:24.759Z,17.20
2018-05-03T20:18:50.985Z,17.10
2018-05-03T20:21:17.278Z,17.00
2018-05-03T20:23:43.528Z,16.80
2018-05-03T20:26:09.772Z,16.70
2018-05-03T20:28:36.030Z,16.70
2018-05-03T20:31:02.252Z,16.60
2018-05-03T20:33:29.235Z,16.40
2018-05-03T20:35:55.555Z,16.40
2018-05-03T20:38:22.526Z,16.20
2018-05-03T20:40:49.492Z,16.10
2018-05-03T20:43:15.721Z,16.10
2018-05-03T20:45:42.720Z,16.10
2018-05-03T20:48:08.969Z,16.10
2018-05-03T20:50:35.251Z,16.10
2018-05-03T20:53:02.222Z,16.10
2018-05-03T20:55:28.455Z,16.10
2018-05-03T20:57:55.453Z,16.20
2018-05-03T21:00:21.695Z,16.20
2018-05-03T21:02:47.901Z,16.20
2018-05-03T21:05:14.889Z,16.10
2018-05-03T21:07:41.140Z,16.10
2018-05-03T21:10:07.375Z,16.00
2018-05-03T21:12:33.865Z,15.90
2018-05-03T21:15:00.134Z,15.90
2018-05-03T21:17:26.507Z,15.80
2018-05-03T21:19:52.733Z,15.80
2018-05-03T21:22:18.957Z,15.80
2018-05-03T21:24:45.176Z,15.80
2018-05-03T21:27:12.201Z,15.70
2018-05-03T21:29:38.437Z,15.70
2018-05-03T21:32:04.694Z,15.70
2018-05-03T21:34:30.958Z,15.70
2018-05-03T21:36:57.214Z,15.70
2018-05-03T21:39:24.162Z,15.60
2018-05-03T21:41:51.147Z,15.60
2018-05-03T21:44:18.101Z,15.60
2018-05-03T21:46:44.314Z,15.50
2018-05-03T21:49:11.306Z,15.50
2018-05-03T21:51:37.554Z,15.50
2018-05-03T21:54:03.780Z,15.50
2018-05-03T21:56:30.046Z,15.40
2018-05-03T21:58:56.264Z,15.40
2018-05-03T22:01:22.465Z,15.40
2018-05-03T22:03:49.525Z,15.30
2018-05-03T22:06:15.687Z,15.30
2018-05-03T22:08:41.921Z,15.30
2018-05-03T22:11:08.146Z,15.30
2018-05-03T22:13:34.466Z,15.30
2018-05-03T22:16:00.690Z,15.20
2018-05-03T22:18:26.906Z,15.30
2018-05-03T22:20:53.119Z,15.30
2018-05-03T22:23:20.020Z,15.30
2018-05-03T22:25:46.242Z,15.30
2018-05-03T22:28:12.450Z,15.30
2018-05-03T22:30:39.422Z,15.30
2018-05-03T22:33:05.650Z,15.20
2018-05-03T22:35:32.606Z,15.30
2018-05-03T22:37:59.626Z,15.30
2018-05-03T22:40:25.857Z,15.20
2018-05-03T22:42:52.251Z,15.30
2018-05-03T22:45:19.193Z,15.20
2018-05-03T22:47:45.422Z,15.20
2018-05-03T22:50:11.673Z,15.10
2018-05-03T22:52:37.870Z,15.10
2018-05-03T22:55:04.094Z,15.00
2018-05-03T22:57:30.327Z,15.00
2018-05-03T22:59:56.546Z,14.90
2018-05-03T23:02:23.499Z,14.80
2018-05-03T23:04:50.439Z,14.80
2018-05-03T23:07:16.644Z,14.80
2018-05-03T23:09:42.901Z,14.80
2018-05-03T23:12:09.133Z,14.70
2018-05-03T23:14:35.577Z,14.60
2018-05-03T23:17:01.822Z,14.60
2018-05-03T23:19:28.017Z,14.60
2018-05-03T23:21:54.973Z,14.50
2018-05-03T23:24:21.199Z,14.50
2018-05-03T23:26:48.143Z,14.40
2018-05-03T23:29:14.361Z,14.50
2018-05-03T23:31:40.589Z,14.40
2018-05-03T23:34:06.873Z,14.40
2018-05-03T23:36:33.975Z,14.40
2018-05-03T23:39:00.290Z,14.40
2018-05-03T23:41:27.341Z,14.40
2018-05-03T23:43:54.399Z,14.40
2018-05-03T23:46:21.440Z,14.40
2018-05-03T23:48:47.738Z,14.30
2018-05-03T23:51:14.042Z,14.30
2018-05-03T23:53:41.080Z,14.20
2018-05-03T23:56:07.374Z,14.30
2018-05-03T23:58:33.674Z,14.20
